sensor_id;sensor_type;location;lat;lon;timestamp;pressure;altitude;pressure_sealevel;temperature;humidity
19208;BME280;9737;59.466;18.036;2022-11-20T00:00:55;95053.75;;;0.19;81.73
19208;BME280;9737;59.466;18.036;2022-11-20T00:03:23;95018.09;;;0.11;81.58
19208;BME280;9737;59.466;18.036;2022-11-20T00:05:51;95015.84;;;0.08;81.53
19208;BME280;9737;59.466;18.036;2022-11-20T00:08:19;95016.47;;;0.10;81.50
19208;BME280;9737;59.466;18.036;2022-11-20T00:10:47;95026.56;;;0.13;81.70
19208;BME280;9737;59.466;18.036;2022-11-20T00:13:15;95035.38;;;0.12;81.64
19208;BME280;9737;59.466;18.036;2022-11-20T00:15:43;95048.72;;;0.17;81.58
19208;BME280;9737;59.466;18.036;2022-11-20T00:18:12;95035.03;;;0.15;81.37
19208;BME280;9737;59.466;18.036;2022-11-20T00:20:40;95060.41;;;0.21;81.53
19208;BME280;9737;59.466;18.036;2022-11-20T00:23:08;95032.16;;;0.10;81.82
19208;BME280;9737;59.466;18.036;2022-11-20T00:25:36;95043.50;;;0.17;81.65
19208;BME280;9737;59.466;18.036;2022-11-20T00:28:03;95046.72;;;0.19;81.67
19208;BME280;9737;59.466;18.036;2022-11-20T00:30:32;95040.06;;;0.17;81.99
19208;BME280;9737;59.466;18.036;2022-11-20T00:33:00;95023.31;;;0.11;81.38
19208;BME280;9737;59.466;18.036;2022-11-20T00:35:29;95035.84;;;0.16;81.52
19208;BME280;9737;59.466;18.036;2022-11-20T00:37:57;95024.75;;;0.14;81.75
19208;BME280;9737;59.466;18.036;2022-11-20T00:40:25;95031.78;;;0.13;81.91
19208;BME280;9737;59.466;18.036;2022-11-20T00:42:53;95041.88;;;0.16;81.65
19208;BME280;9737;59.466;18.036;2022-11-20T00:45:21;95026.56;;;0.13;81.93
19208;BME280;9737;59.466;18.036;2022-11-20T00:47:48;95047.09;;;0.16;82.00
19208;BME280;9737;59.466;18.036;2022-11-20T00:50:17;95037.63;;;0.15;81.88
19208;BME280;9737;59.466;18.036;2022-11-20T00:52:46;95033.41;;;0.14;81.68
19208;BME280;9737;59.466;18.036;2022-11-20T00:55:15;95021.69;;;0.10;81.63
19208;BME280;9737;59.466;18.036;2022-11-20T00:57:43;95032.41;;;0.15;81.89
19208;BME280;9737;59.466;18.036;2022-11-20T01:00:11;95034.03;;;0.16;81.67
19208;BME280;9737;59.466;18.036;2022-11-20T01:02:39;95037.00;;;0.13;82.10
19208;BME280;9737;59.466;18.036;2022-11-20T01:05:07;95007.22;;;0.08;81.69
19208;BME280;9737;59.466;18.036;2022-11-20T01:07:35;95020.72;;;0.11;82.06
19208;BME280;9737;59.466;18.036;2022-11-20T01:10:06;95008.81;;;0.09;81.94
19208;BME280;9737;59.466;18.036;2022-11-20T01:12:34;95004.78;;;0.06;81.96
19208;BME280;9737;59.466;18.036;2022-11-20T01:15:02;94997.13;;;0.05;81.95
19208;BME280;9737;59.466;18.036;2022-11-20T01:17:30;95014.22;;;0.07;81.71
19208;BME280;9737;59.466;18.036;2022-11-20T01:20:01;94997.13;;;0.05;81.78
19208;BME280;9737;59.466;18.036;2022-11-20T01:22:29;94997.31;;;0.03;81.98
19208;BME280;9737;59.466;18.036;2022-11-20T01:24:56;94984.59;;;0.00;81.88
19208;BME280;9737;59.466;18.036;2022-11-20T01:27:26;94976.78;;;0.00;81.57
19208;BME280;9737;59.466;18.036;2022-11-20T01:29:54;94976.94;;;-0.02;81.63
19208;BME280;9737;59.466;18.036;2022-11-20T01:32:26;94974.50;;;-0.03;82.10
19208;BME280;9737;59.466;18.036;2022-11-20T01:34:54;94957.13;;;-0.11;82.03
19208;BME280;9737;59.466;18.036;2022-11-20T01:37:22;94977.91;;;-0.03;82.02
19208;BME280;9737;59.466;18.036;2022-11-20T01:39:51;94974.84;;;-0.06;82.03
19208;BME280;9737;59.466;18.036;2022-11-20T01:42:19;94974.50;;;-0.03;81.68
19208;BME280;9737;59.466;18.036;2022-11-20T01:48:07;94962.78;;;-0.07;82.03
19208;BME280;9737;59.466;18.036;2022-11-20T01:50:35;94973.69;;;-0.04;81.76
19208;BME280;9737;59.466;18.036;2022-11-20T01:53:05;94967.66;;;-0.04;81.80
19208;BME280;9737;59.466;18.036;2022-11-20T01:55:39;94973.69;;;-0.04;81.64
19208;BME280;9737;59.466;18.036;2022-11-20T01:58:09;94980.53;;;-0.03;81.75
19208;BME280;9737;59.466;18.036;2022-11-20T02:00:37;94979.72;;;-0.03;82.08
19208;BME280;9737;59.466;18.036;2022-11-20T02:03:08;94944.88;;;-0.10;82.06
19208;BME280;9737;59.466;18.036;2022-11-20T02:05:40;94960.72;;;-0.12;82.10
19208;BME280;9737;59.466;18.036;2022-11-20T02:08:11;94945.97;;;-0.19;81.91
19208;BME280;9737;59.466;18.036;2022-11-20T02:10:40;94972.06;;;-0.05;81.76
19208;BME280;9737;59.466;18.036;2022-11-20T02:13:08;94949.94;;;-0.09;82.11
19208;BME280;9737;59.466;18.036;2022-11-20T02:15:54;94946.69;;;-0.11;82.03
19208;BME280;9737;59.466;18.036;2022-11-20T02:18:24;94942.47;;;-0.12;82.20
19208;BME280;9737;59.466;18.036;2022-11-20T02:20:55;94956.13;;;-0.10;81.72
19208;BME280;9737;59.466;18.036;2022-11-20T02:23:31;94939.84;;;-0.12;81.92
19208;BME280;9737;59.466;18.036;2022-11-20T02:26:04;94948.59;;;-0.19;82.08
19208;BME280;9737;59.466;18.036;2022-11-20T02:28:34;94951.72;;;-0.09;81.86
19208;BME280;9737;59.466;18.036;2022-11-20T02:31:03;94955.31;;;-0.10;82.04
19208;BME280;9737;59.466;18.036;2022-11-20T02:33:31;94940.03;;;-0.13;82.19
19208;BME280;9737;59.466;18.036;2022-11-20T02:35:58;94940.03;;;-0.13;81.89
19208;BME280;9737;59.466;18.036;2022-11-20T02:38:26;94955.16;;;-0.09;81.94
19208;BME280;9737;59.466;18.036;2022-11-20T02:40:54;94963.59;;;-0.07;81.73
19208;BME280;9737;59.466;18.036;2022-11-20T02:43:24;94946.88;;;-0.12;82.25
19208;BME280;9737;59.466;18.036;2022-11-20T02:45:51;94925.72;;;-0.17;81.83
19208;BME280;9737;59.466;18.036;2022-11-20T02:48:19;94935.78;;;-0.14;81.69
19208;BME280;9737;59.466;18.036;2022-11-20T02:50:50;94928.97;;;-0.15;81.83
19208;BME280;9737;59.466;18.036;2022-11-20T02:53:18;94941.81;;;-0.14;81.88
19208;BME280;9737;59.466;18.036;2022-11-20T02:55:46;94921.50;;;-0.18;82.12
19208;BME280;9737;59.466;18.036;2022-11-20T02:58:14;94930.94;;;-0.17;81.96
19208;BME280;9737;59.466;18.036;2022-11-20T03:00:43;94906.38;;;-0.23;82.35
19208;BME280;9737;59.466;18.036;2022-11-20T03:03:11;94906.00;;;-0.20;81.83
19208;BME280;9737;59.466;18.036;2022-11-20T03:05:40;94915.28;;;-0.17;81.74
19208;BME280;9737;59.466;18.036;2022-11-20T03:08:08;94915.66;;;-0.20;82.10
19208;BME280;9737;59.466;18.036;2022-11-20T03:10:36;94920.69;;;-0.19;81.88
19208;BME280;9737;59.466;18.036;2022-11-20T03:13:04;94915.66;;;-0.20;81.94
19208;BME280;9737;59.466;18.036;2022-11-20T03:15:31;94913.66;;;-0.18;81.99
19208;BME280;9737;59.466;18.036;2022-11-20T03:18:01;94936.97;;;-0.17;81.88
19208;BME280;9737;59.466;18.036;2022-11-20T03:20:29;94926.53;;;-0.17;82.03
19208;BME280;9737;59.466;18.036;2022-11-20T03:22:56;94937.59;;;-0.15;82.23
19208;BME280;9737;59.466;18.036;2022-11-20T03:25:25;94929.94;;;-0.16;82.10
19208;BME280;9737;59.466;18.036;2022-11-20T03:27:53;94937.78;;;-0.16;82.22
19208;BME280;9737;59.466;18.036;2022-11-20T03:30:22;94893.50;;;-0.24;82.11
19208;BME280;9737;59.466;18.036;2022-11-20T03:32:56;94890.34;;;-0.35;82.07
19208;BME280;9737;59.466;18.036;2022-11-20T03:35:25;94923.09;;;-0.17;82.04
19208;BME280;9737;59.466;18.036;2022-11-20T03:37:53;94923.28;;;-0.19;81.87
19208;BME280;9737;59.466;18.036;2022-11-20T03:40:21;94928.50;;;-0.19;81.97
19208;BME280;9737;59.466;18.036;2022-11-20T03:42:49;94876.94;;;-0.32;82.24
19208;BME280;9737;59.466;18.036;2022-11-20T03:45:17;94862.00;;;-0.38;81.95
19208;BME280;9737;59.466;18.036;2022-11-20T03:47:46;94866.50;;;-0.32;81.97
19208;BME280;9737;59.466;18.036;2022-11-20T03:50:14;94840.50;;;-0.40;82.06
19208;BME280;9737;59.466;18.036;2022-11-20T03:52:43;94827.81;;;-0.43;82.37
19208;BME280;9737;59.466;18.036;2022-11-20T03:55:11;94792.38;;;-0.52;82.02
19208;BME280;9737;59.466;18.036;2022-11-20T03:57:40;94749.28;;;-0.63;82.21
19208;BME280;9737;59.466;18.036;2022-11-20T04:00:09;94737.59;;;-0.67;82.16
19208;BME280;9737;59.466;18.036;2022-11-20T04:02:37;94728.34;;;-0.69;81.81
19208;BME280;9737;59.466;18.036;2022-11-20T04:05:06;94724.31;;;-0.72;82.24
19208;BME280;9737;59.466;18.036;2022-11-20T04:07:34;94725.13;;;-0.71;82.46
19208;BME280;9737;59.466;18.036;2022-11-20T04:10:05;94722.50;;;-0.71;82.05
19208;BME280;9737;59.466;18.036;2022-11-20T04:12:33;94718.28;;;-0.72;82.21
19208;BME280;9737;59.466;18.036;2022-11-20T04:15:02;94733.56;;;-0.69;81.99
19208;BME280;9737;59.466;18.036;2022-11-20T04:17:30;94731.78;;;-0.69;82.41
19208;BME280;9737;59.466;18.036;2022-11-20T04:19:58;94731.94;;;-0.70;82.41
19208;BME280;9737;59.466;18.036;2022-11-20T04:22:26;94745.25;;;-0.65;82.08
19208;BME280;9737;59.466;18.036;2022-11-20T04:24:54;94732.56;;;-0.68;82.06
19208;BME280;9737;59.466;18.036;2022-11-20T04:27:25;94731.31;;;-0.72;82.19
19208;BME280;9737;59.466;18.036;2022-11-20T04:29:53;94763.94;;;-0.62;82.00
19208;BME280;9737;59.466;18.036;2022-11-20T04:32:21;94787.16;;;-0.52;82.00
19208;BME280;9737;59.466;18.036;2022-11-20T04:34:49;94783.94;;;-0.54;81.85
19208;BME280;9737;59.466;18.036;2022-11-20T04:37:18;94790.78;;;-0.53;82.40
19208;BME280;9737;59.466;18.036;2022-11-20T04:39:46;94806.69;;;-0.48;82.21
19208;BME280;9737;59.466;18.036;2022-11-20T04:42:14;94797.59;;;-0.52;81.90
19208;BME280;9737;59.466;18.036;2022-11-20T04:44:58;94803.44;;;-0.50;81.91
19208;BME280;9737;59.466;18.036;2022-11-20T04:47:26;94779.72;;;-0.55;81.77
19208;BME280;9737;59.466;18.036;2022-11-20T04:49:54;94804.88;;;-0.47;82.01
19208;BME280;9737;59.466;18.036;2022-11-20T04:52:22;94795.63;;;-0.50;82.04
19208;BME280;9737;59.466;18.036;2022-11-20T04:54:50;94788.16;;;-0.53;81.85
19208;BME280;9737;59.466;18.036;2022-11-20T04:57:20;94788.34;;;-0.54;82.10
19208;BME280;9737;59.466;18.036;2022-11-20T04:59:48;94779.09;;;-0.57;82.32
19208;BME280;9737;59.466;18.036;2022-11-20T05:02:18;94792.38;;;-0.52;82.25
19208;BME280;9737;59.466;18.036;2022-11-20T05:04:46;94831.41;;;-0.44;82.18
19208;BME280;9737;59.466;18.036;2022-11-20T05:07:14;94802.00;;;-0.52;82.23
19208;BME280;9737;59.466;18.036;2022-11-20T05:09:42;94793.75;;;-0.56;82.05
19208;BME280;9737;59.466;18.036;2022-11-20T05:12:10;94773.88;;;-0.57;81.94
19208;BME280;9737;59.466;18.036;2022-11-20T05:14:38;94742.66;;;-0.65;82.15
19208;BME280;9737;59.466;18.036;2022-11-20T05:17:06;94710.84;;;-0.75;82.21
19208;BME280;9737;59.466;18.036;2022-11-20T05:19:35;94711.47;;;-0.73;82.05
19208;BME280;9737;59.466;18.036;2022-11-20T05:22:04;94679.66;;;-0.83;82.34
19208;BME280;9737;59.466;18.036;2022-11-20T05:24:32;94698.97;;;-0.78;82.18
19208;BME280;9737;59.466;18.036;2022-11-20T05:27:00;94711.00;;;-0.77;82.26
19208;BME280;9737;59.466;18.036;2022-11-20T05:29:28;94700.59;;;-0.77;82.11
19208;BME280;9737;59.466;18.036;2022-11-20T05:31:55;94683.69;;;-0.81;82.25
19208;BME280;9737;59.466;18.036;2022-11-20T05:34:23;94693.31;;;-0.81;81.88
19208;BME280;9737;59.466;18.036;2022-11-20T05:36:53;94693.13;;;-0.80;82.26
19208;BME280;9737;59.466;18.036;2022-11-20T05:39:21;94692.13;;;-0.79;82.53
19208;BME280;9737;59.466;18.036;2022-11-20T05:41:49;94719.91;;;-0.71;82.40
19208;BME280;9737;59.466;18.036;2022-11-20T05:44:38;94724.13;;;-0.70;81.97
19208;BME280;9737;59.466;18.036;2022-11-20T05:47:06;94739.41;;;-0.67;82.54
19208;BME280;9737;59.466;18.036;2022-11-20T05:49:34;94756.13;;;-0.62;82.54
19208;BME280;9737;59.466;18.036;2022-11-20T05:52:03;94753.69;;;-0.63;82.00
19208;BME280;9737;59.466;18.036;2022-11-20T05:54:32;94759.34;;;-0.59;82.30
19208;BME280;9737;59.466;18.036;2022-11-20T05:56:59;94771.59;;;-0.60;82.46
19208;BME280;9737;59.466;18.036;2022-11-20T05:59:27;94789.34;;;-0.55;82.27
19208;BME280;9737;59.466;18.036;2022-11-20T06:01:56;94807.50;;;-0.47;81.94
19208;BME280;9737;59.466;18.036;2022-11-20T06:04:24;94794.56;;;-0.55;82.58
19208;BME280;9737;59.466;18.036;2022-11-20T06:06:52;94766.94;;;-0.65;82.39
19208;BME280;9737;59.466;18.036;2022-11-20T06:09:21;94771.25;;;-0.57;82.24
19208;BME280;9737;59.466;18.036;2022-11-20T06:11:49;94771.41;;;-0.58;82.50
19208;BME280;9737;59.466;18.036;2022-11-20T06:14:17;94797.59;;;-0.52;82.36
19208;BME280;9737;59.466;18.036;2022-11-20T06:16:45;94789.97;;;-0.53;82.18
19208;BME280;9737;59.466;18.036;2022-11-20T06:19:13;94794.19;;;-0.52;82.14
19208;BME280;9737;59.466;18.036;2022-11-20T06:21:41;94777.09;;;-0.55;82.41
19208;BME280;9737;59.466;18.036;2022-11-20T06:24:09;94783.31;;;-0.56;82.40
19208;BME280;9737;59.466;18.036;2022-11-20T06:26:39;94799.22;;;-0.51;82.32
19208;BME280;9737;59.466;18.036;2022-11-20T06:29:07;94797.59;;;-0.52;82.72
19208;BME280;9737;59.466;18.036;2022-11-20T06:31:35;94797.59;;;-0.52;82.28
19208;BME280;9737;59.466;18.036;2022-11-20T06:34:04;94797.78;;;-0.53;82.45
19208;BME280;9737;59.466;18.036;2022-11-20T06:36:33;94816.31;;;-0.48;82.80
19208;BME280;9737;59.466;18.036;2022-11-20T06:39:01;94809.09;;;-0.46;82.44
19208;BME280;9737;59.466;18.036;2022-11-20T06:41:29;94796.34;;;-0.56;82.71
19208;BME280;9737;59.466;18.036;2022-11-20T06:43:58;94816.13;;;-0.47;82.45
19208;BME280;9737;59.466;18.036;2022-11-20T06:46:27;94806.06;;;-0.50;82.39
19208;BME280;9737;59.466;18.036;2022-11-20T06:48:55;94800.22;;;-0.52;82.15
19208;BME280;9737;59.466;18.036;2022-11-20T06:51:24;94770.16;;;-0.63;82.47
19208;BME280;9737;59.466;18.036;2022-11-20T06:53:52;94746.25;;;-0.66;82.59
19208;BME280;9737;59.466;18.036;2022-11-20T06:56:21;94724.13;;;-0.70;82.21
19208;BME280;9737;59.466;18.036;2022-11-20T06:58:49;94728.72;;;-0.72;82.16
19208;BME280;9737;59.466;18.036;2022-11-20T07:01:18;94704.00;;;-0.76;82.50
19208;BME280;9737;59.466;18.036;2022-11-20T07:03:48;94673.97;;;-0.87;82.36
19208;BME280;9737;59.466;18.036;2022-11-20T07:06:20;94661.91;;;-0.88;82.20
19208;BME280;9737;59.466;18.036;2022-11-20T07:08:50;94657.06;;;-0.91;82.30
19208;BME280;9737;59.466;18.036;2022-11-20T07:11:18;94666.31;;;-0.88;82.53
19208;BME280;9737;59.466;18.036;2022-11-20T07:13:46;94648.44;;;-0.91;82.38
19208;BME280;9737;59.466;18.036;2022-11-20T07:16:17;94670.53;;;-0.87;82.51
19208;BME280;9737;59.466;18.036;2022-11-20T07:18:45;94666.81;;;-0.85;82.32
19208;BME280;9737;59.466;18.036;2022-11-20T07:21:16;94678.84;;;-0.84;82.45
19208;BME280;9737;59.466;18.036;2022-11-20T07:23:44;94694.94;;;-0.80;82.33
19208;BME280;9737;59.466;18.036;2022-11-20T07:26:13;94702.75;;;-0.80;82.68
19208;BME280;9737;59.466;18.036;2022-11-20T07:28:43;94707.34;;;-0.82;82.33
19208;BME280;9737;59.466;18.036;2022-11-20T07:31:12;94735.56;;;-0.71;82.87
19208;BME280;9737;59.466;18.036;2022-11-20T07:33:46;94741.41;;;-0.69;82.51
19208;BME280;9737;59.466;18.036;2022-11-20T07:36:14;94745.25;;;-0.65;82.97
19208;BME280;9737;59.466;18.036;2022-11-20T07:38:42;94775.81;;;-0.59;82.98
19208;BME280;9737;59.466;18.036;2022-11-20T07:41:10;94776.63;;;-0.58;82.91
19208;BME280;9737;59.466;18.036;2022-11-20T07:43:38;94788.53;;;-0.56;82.68
19208;BME280;9737;59.466;18.036;2022-11-20T07:46:07;94802.00;;;-0.52;82.61
19208;BME280;9737;59.466;18.036;2022-11-20T07:48:35;94807.66;;;-0.49;82.73
19208;BME280;9737;59.466;18.036;2022-11-20T07:51:04;94832.41;;;-0.45;82.81
19208;BME280;9737;59.466;18.036;2022-11-20T07:53:33;94852.56;;;-0.39;83.01
19208;BME280;9737;59.466;18.036;2022-11-20T07:56:01;94889.78;;;-0.30;82.96
19208;BME280;9737;59.466;18.036;2022-11-20T07:58:30;94904.31;;;-0.27;82.47
19208;BME280;9737;59.466;18.036;2022-11-20T08:01:02;94944.63;;;-0.15;83.00
19208;BME280;9737;59.466;18.036;2022-11-20T08:03:30;95004.31;;;0.03;82.44
19208;BME280;9737;59.466;18.036;2022-11-20T08:05:58;95043.41;;;0.11;82.95
19208;BME280;9737;59.466;18.036;2022-11-20T08:08:28;95076.44;;;0.18;82.51
19208;BME280;9737;59.466;18.036;2022-11-20T08:11:00;95091.41;;;0.24;82.69
19208;BME280;9737;59.466;18.036;2022-11-20T08:13:42;95118.47;;;0.32;82.94
19208;BME280;9737;59.466;18.036;2022-11-20T08:16:27;95160.44;;;0.45;82.67
19208;BME280;9737;59.466;18.036;2022-11-20T08:18:55;95151.97;;;0.43;82.94
19208;BME280;9737;59.466;18.036;2022-11-20T08:21:24;95142.25;;;0.37;82.82
19208;BME280;9737;59.466;18.036;2022-11-20T08:23:53;95114.03;;;0.32;82.64
19208;BME280;9737;59.466;18.036;2022-11-20T08:26:21;95102.66;;;0.25;83.00
19208;BME280;9737;59.466;18.036;2022-11-20T08:28:53;95125.31;;;0.33;83.04
19208;BME280;9737;59.466;18.036;2022-11-20T08:31:22;95131.78;;;0.37;82.60
19208;BME280;9737;59.466;18.036;2022-11-20T08:33:50;95153.97;;;0.41;83.01
19208;BME280;9737;59.466;18.036;2022-11-20T08:36:18;95204.44;;;0.56;82.99
19208;BME280;9737;59.466;18.036;2022-11-20T08:38:47;95244.56;;;0.63;83.29
19208;BME280;9737;59.466;18.036;2022-11-20T08:41:17;95244.41;;;0.65;82.70
19208;BME280;9737;59.466;18.036;2022-11-20T08:43:56;95267.03;;;0.72;82.95
19208;BME280;9737;59.466;18.036;2022-11-20T08:46:25;95297.88;;;0.77;83.32
19208;BME280;9737;59.466;18.036;2022-11-20T08:48:53;95302.91;;;0.78;82.65
19208;BME280;9737;59.466;18.036;2022-11-20T08:51:21;95314.66;;;0.82;82.98
19208;BME280;9737;59.466;18.036;2022-11-20T08:53:49;95306.97;;;0.81;82.69
19208;BME280;9737;59.466;18.036;2022-11-20T08:56:19;95315.63;;;0.81;82.82
19208;BME280;9737;59.466;18.036;2022-11-20T08:58:47;95327.53;;;0.84;82.84
19208;BME280;9737;59.466;18.036;2022-11-20T09:01:37;95298.69;;;0.77;83.04
19208;BME280;9737;59.466;18.036;2022-11-20T09:04:05;95306.16;;;0.80;83.12
19208;BME280;9737;59.466;18.036;2022-11-20T09:06:33;95309.41;;;0.82;83.10
19208;BME280;9737;59.466;18.036;2022-11-20T09:09:01;95334.06;;;0.88;83.16
19208;BME280;9737;59.466;18.036;2022-11-20T09:11:34;95341.09;;;0.87;83.14
19208;BME280;9737;59.466;18.036;2022-11-20T09:14:02;95358.50;;;0.95;83.15
19208;BME280;9737;59.466;18.036;2022-11-20T09:16:31;95358.69;;;0.93;83.12
19208;BME280;9737;59.466;18.036;2022-11-20T09:18:59;95319.69;;;0.84;82.90
19208;BME280;9737;59.466;18.036;2022-11-20T09:21:46;95338.81;;;0.84;83.08
19208;BME280;9737;59.466;18.036;2022-11-20T09:24:14;95368.16;;;0.95;82.82
19208;BME280;9737;59.466;18.036;2022-11-20T09:26:44;95395.22;;;1.02;83.34
19208;BME280;9737;59.466;18.036;2022-11-20T09:29:12;95413.19;;;1.05;82.88
19208;BME280;9737;59.466;18.036;2022-11-20T09:31:41;95402.72;;;1.05;83.07
19208;BME280;9737;59.466;18.036;2022-11-20T09:34:09;95386.13;;;0.98;82.99
19208;BME280;9737;59.466;18.036;2022-11-20T09:36:37;95396.22;;;1.01;82.97
19208;BME280;9737;59.466;18.036;2022-11-20T09:39:05;95393.59;;;1.01;83.29
19208;BME280;9737;59.466;18.036;2022-11-20T09:41:55;95438.47;;;1.12;83.16
19208;BME280;9737;59.466;18.036;2022-11-20T09:47:39;95406.34;;;1.04;82.95
19208;BME280;9737;59.466;18.036;2022-11-20T09:50:26;95386.94;;;0.98;82.74
19208;BME280;9737;59.466;18.036;2022-11-20T09:53:06;95382.50;;;0.99;83.17
19208;BME280;9737;59.466;18.036;2022-11-20T09:55:37;95399.00;;;0.99;83.06
19208;BME280;9737;59.466;18.036;2022-11-20T09:58:07;95379.25;;;0.97;83.10
19208;BME280;9737;59.466;18.036;2022-11-20T10:00:40;95374.38;;;0.93;82.87
19208;BME280;9737;59.466;18.036;2022-11-20T10:03:13;95411.56;;;1.04;83.03
19208;BME280;9737;59.466;18.036;2022-11-20T10:05:44;95401.47;;;1.01;83.35
19208;BME280;9737;59.466;18.036;2022-11-20T10:08:17;95394.59;;;1.00;83.02
19208;BME280;9737;59.466;18.036;2022-11-20T10:10:51;95374.03;;;0.97;83.26
19208;BME280;9737;59.466;18.036;2022-11-20T10:13:34;95371.59;;;0.95;83.41
19208;BME280;9737;59.466;18.036;2022-11-20T10:16:16;95368.81;;;0.97;82.68
19208;BME280;9737;59.466;18.036;2022-11-20T10:19:02;95341.09;;;0.87;83.05
19208;BME280;9737;59.466;18.036;2022-11-20T10:21:40;95379.25;;;0.97;82.97
19208;BME280;9737;59.466;18.036;2022-11-20T10:24:34;95354.63;;;0.91;82.93
19208;BME280;9737;59.466;18.036;2022-11-20T10:27:12;95367.19;;;0.96;83.19
19208;BME280;9737;59.466;18.036;2022-11-20T10:29:57;95356.44;;;0.90;83.16
19208;BME280;9737;59.466;18.036;2022-11-20T10:32:32;95347.78;;;0.90;82.99
19208;BME280;9737;59.466;18.036;2022-11-20T10:35:06;95363.13;;;0.93;83.05
19208;BME280;9737;59.466;18.036;2022-11-20T10:37:43;95404.72;;;1.03;83.20
19208;BME280;9737;59.466;18.036;2022-11-20T10:40:22;95420.22;;;1.04;83.05
19208;BME280;9737;59.466;18.036;2022-11-20T10:42:56;95411.56;;;1.04;83.00
19208;BME280;9737;59.466;18.036;2022-11-20T10:45:40;95427.72;;;1.07;82.91
19208;BME280;9737;59.466;18.036;2022-11-20T10:48:15;95396.22;;;1.01;83.11
19208;BME280;9737;59.466;18.036;2022-11-20T10:50:55;95376.38;;;0.91;83.14
19208;BME280;9737;59.466;18.036;2022-11-20T10:53:43;95387.75;;;0.99;83.48
19208;BME280;9737;59.466;18.036;2022-11-20T10:56:19;95399.00;;;0.99;82.92
19208;BME280;9737;59.466;18.036;2022-11-20T10:58:58;95430.16;;;1.09;83.11
19208;BME280;9737;59.466;18.036;2022-11-20T11:01:29;95419.88;;;1.07;83.03
19208;BME280;9737;59.466;18.036;2022-11-20T11:03:58;95416.63;;;1.05;83.27
19208;BME280;9737;59.466;18.036;2022-11-20T11:06:32;95429.16;;;1.10;83.34
19208;BME280;9737;59.466;18.036;2022-11-20T11:09:10;95411.56;;;1.04;83.08
19208;BME280;9737;59.466;18.036;2022-11-20T11:11:39;95414.19;;;1.04;83.09
19208;BME280;9737;59.466;18.036;2022-11-20T11:14:09;95409.59;;;1.06;83.33
19208;BME280;9737;59.466;18.036;2022-11-20T11:16:49;95437.66;;;1.12;83.15
19208;BME280;9737;59.466;18.036;2022-11-20T11:19:17;95452.19;;;1.14;82.95
19208;BME280;9737;59.466;18.036;2022-11-20T11:21:46;95440.97;;;1.06;83.18
19208;BME280;9737;59.466;18.036;2022-11-20T11:24:22;95457.25;;;1.16;83.18
19208;BME280;9737;59.466;18.036;2022-11-20T11:27:12;95440.25;;;1.12;83.30
19208;BME280;9737;59.466;18.036;2022-11-20T11:29:43;95457.94;;;1.10;82.86
19208;BME280;9737;59.466;18.036;2022-11-20T11:32:15;95441.91;;;1.13;83.18
19208;BME280;9737;59.466;18.036;2022-11-20T11:34:44;95453.81;;;1.15;82.73
19208;BME280;9737;59.466;18.036;2022-11-20T11:37:15;95437.81;;;1.10;83.46
19208;BME280;9737;59.466;18.036;2022-11-20T11:39:46;95453.00;;;1.15;83.11
19208;BME280;9737;59.466;18.036;2022-11-20T11:42:29;95485.97;;;1.24;83.37
19208;BME280;9737;59.466;18.036;2022-11-20T11:44:59;95456.41;;;1.15;82.87
19208;BME280;9737;59.466;18.036;2022-11-20T11:47:36;95462.50;;;1.16;83.41
19208;BME280;9737;59.466;18.036;2022-11-20T11:50:16;95469.19;;;1.18;83.13
19208;BME280;9737;59.466;18.036;2022-11-20T11:52:54;95447.13;;;1.13;82.97
19208;BME280;9737;59.466;18.036;2022-11-20T11:55:31;95487.59;;;1.25;83.09
19208;BME280;9737;59.466;18.036;2022-11-20T11:58:12;95499.69;;;1.26;82.93
19208;BME280;9737;59.466;18.036;2022-11-20T12:00:54;95463.13;;;1.18;83.21
19208;BME280;9737;59.466;18.036;2022-11-20T12:03:34;95465.75;;;1.18;83.26
19208;BME280;9737;59.466;18.036;2022-11-20T12:06:07;95472.59;;;1.19;83.05
19208;BME280;9737;59.466;18.036;2022-11-20T12:08:43;95430.16;;;1.09;83.36
19208;BME280;9737;59.466;18.036;2022-11-20T12:11:17;95427.25;;;1.04;82.98
19208;BME280;9737;59.466;18.036;2022-11-20T12:13:52;95429.53;;;1.07;83.01
19208;BME280;9737;59.466;18.036;2022-11-20T12:16:21;95428.53;;;1.08;83.28
19208;BME280;9737;59.466;18.036;2022-11-20T12:18:52;95431.59;;;1.11;82.73
19208;BME280;9737;59.466;18.036;2022-11-20T12:21:28;95442.06;;;1.11;83.44
19208;BME280;9737;59.466;18.036;2022-11-20T12:24:42;95429.34;;;1.08;83.48
19208;BME280;9737;59.466;18.036;2022-11-20T12:27:29;95411.56;;;1.04;83.23
19208;BME280;9737;59.466;18.036;2022-11-20T12:30:08;95424.28;;;1.07;83.06
19208;BME280;9737;59.466;18.036;2022-11-20T12:32:52;95405.88;;;1.00;83.18
19208;BME280;9737;59.466;18.036;2022-11-20T12:35:42;95349.59;;;0.89;83.16
19208;BME280;9737;59.466;18.036;2022-11-20T12:38:32;95327.09;;;0.80;83.10
19208;BME280;9737;59.466;18.036;2022-11-20T12:41:10;95327.09;;;0.80;83.15
19208;BME280;9737;59.466;18.036;2022-11-20T12:44:10;95315.81;;;0.80;83.44
19208;BME280;9737;59.466;18.036;2022-11-20T12:47:13;95304.91;;;0.76;83.20
19208;BME280;9737;59.466;18.036;2022-11-20T12:49:49;95337.19;;;0.83;83.00
19208;BME280;9737;59.466;18.036;2022-11-20T12:52:35;95289.09;;;0.70;82.88
19208;BME280;9737;59.466;18.036;2022-11-20T12:55:16;95302.47;;;0.75;83.08
19208;BME280;9737;59.466;18.036;2022-11-20T12:57:50;95285.50;;;0.71;83.30
19208;BME280;9737;59.466;18.036;2022-11-20T13:00:22;95280.47;;;0.69;83.28
19208;BME280;9737;59.466;18.036;2022-11-20T13:03:03;95268.56;;;0.67;82.83
19208;BME280;9737;59.466;18.036;2022-11-20T13:05:43;95281.44;;;0.68;83.29
19208;BME280;9737;59.466;18.036;2022-11-20T13:08:20;95266.75;;;0.67;83.17
19208;BME280;9737;59.466;18.036;2022-11-20T13:10:55;95239.06;;;0.58;83.16
19208;BME280;9737;59.466;18.036;2022-11-20T13:13:31;95228.63;;;0.58;83.09
19208;BME280;9737;59.466;18.036;2022-11-20T13:16:08;95242.63;;;0.57;83.02
19208;BME280;9737;59.466;18.036;2022-11-20T13:18:44;95239.69;;;0.60;83.32
19208;BME280;9737;59.466;18.036;2022-11-20T13:21:16;95232.03;;;0.58;82.73
19208;BME280;9737;59.466;18.036;2022-11-20T13:23:48;95254.22;;;0.63;83.17
19208;BME280;9737;59.466;18.036;2022-11-20T13:26:19;95245.56;;;0.62;83.06
19208;BME280;9737;59.466;18.036;2022-11-20T13:28:59;95249.16;;;0.61;82.94
19208;BME280;9737;59.466;18.036;2022-11-20T13:31:31;95246.25;;;0.56;83.00
19208;BME280;9737;59.466;18.036;2022-11-20T13:34:03;95237.41;;;0.57;82.99